sensor_id;sensor_type;location;lat;lon;timestamp;pressure;altitude;pressure_sealevel;temperature;humidity
42633;BME280;28261;53.304;-6.284;2024-03-08T00:01:50;100888.28;;;6.19;100.00
42633;BME280;28261;53.304;-6.284;2024-03-08T00:03:54;100895.38;;;6.17;100.00
42633;BME280;28261;53.304;-6.284;2024-03-08T00:05:58;100889.28;;;6.17;100.00
42633;BME280;28261;53.304;-6.284;2024-03-08T00:08:02;100893.66;;;6.16;100.00
42633;BME280;28261;53.304;-6.284;2024-03-08T00:10:07;100890.25;;;6.14;100.00
42633;BME280;28261;53.304;-6.284;2024-03-08T00:12:15;100883.28;;;6.13;100.00
42633;BME280;28261;53.304;-6.284;2024-03-08T00:14:19;100885.00;;;6.14;100.00
42633;BME280;28261;53.304;-6.284;2024-03-08T00:16:22;100876.31;;;6.12;100.00
42633;BME280;28261;53.304;-6.284;2024-03-08T00:18:28;100873.75;;;6.10;100.00
42633;BME280;28261;53.304;-6.284;2024-03-08T00:20:32;100858.81;;;6.11;100.00
42633;BME280;28261;53.304;-6.284;2024-03-08T00:22:36;100862.31;;;6.12;100.00
42633;BME280;28261;53.304;-6.284;2024-03-08T00:24:41;100867.84;;;6.05;100.00
42633;BME280;28261;53.304;-6.284;2024-03-08T00:26:45;100857.31;;;6.05;100.00
42633;BME280;28261;53.304;-6.284;2024-03-08T00:28:49;100867.06;;;6.03;100.00
42633;BME280;28261;53.304;-6.284;2024-03-08T00:30:53;100850.47;;;6.01;100.00
42633;BME280;28261;53.304;-6.284;2024-03-08T00:32:56;100854.91;;;6.01;100.00
42633;BME280;28261;53.304;-6.284;2024-03-08T00:35:02;100848.78;;;6.00;100.00
42633;BME280;28261;53.304;-6.284;2024-03-08T00:37:06;100851.44;;;6.00;100.00
42633;BME280;28261;53.304;-6.284;2024-03-08T00:39:11;100860.22;;;5.99;100.00
42633;BME280;28261;53.304;-6.284;2024-03-08T00:41:14;100851.66;;;5.94;100.00
42633;BME280;28261;53.304;-6.284;2024-03-08T00:43:18;100848.53;;;5.86;100.00
42633;BME280;28261;53.304;-6.284;2024-03-08T00:45:22;100849.66;;;5.80;100.00
42633;BME280;28261;53.304;-6.284;2024-03-08T00:47:27;100844.63;;;5.75;100.00
42633;BME280;28261;53.304;-6.284;2024-03-08T00:49:31;100838.69;;;5.70;100.00
42633;BME280;28261;53.304;-6.284;2024-03-08T00:51:36;100843.31;;;5.65;100.00
42633;BME280;28261;53.304;-6.284;2024-03-08T00:53:40;100840.94;;;5.59;100.00
42633;BME280;28261;53.304;-6.284;2024-03-08T00:55:45;100835.81;;;5.56;100.00
42633;BME280;28261;53.304;-6.284;2024-03-08T00:57:48;100834.09;;;5.55;100.00
42633;BME280;28261;53.304;-6.284;2024-03-08T00:59:53;100828.84;;;5.55;100.00
42633;BME280;28261;53.304;-6.284;2024-03-08T01:01:56;100840.25;;;5.55;100.00
42633;BME280;28261;53.304;-6.284;2024-03-08T01:04:01;100828.91;;;5.53;100.00
42633;BME280;28261;53.304;-6.284;2024-03-08T01:06:05;100838.66;;;5.51;100.00
42633;BME280;28261;53.304;-6.284;2024-03-08T01:08:11;100837.94;;;5.48;100.00
42633;BME280;28261;53.304;-6.284;2024-03-08T01:10:15;100838.06;;;5.45;100.00
42633;BME280;28261;53.304;-6.284;2024-03-08T01:12:19;100837.34;;;5.41;100.00
42633;BME280;28261;53.304;-6.284;2024-03-08T01:14:23;100834.84;;;5.38;100.00
42633;BME280;28261;53.304;-6.284;2024-03-08T01:16:28;100835.78;;;5.37;100.00
42633;BME280;28261;53.304;-6.284;2024-03-08T01:18:32;100829.59;;;5.38;100.00
42633;BME280;28261;53.304;-6.284;2024-03-08T01:20:36;100833.06;;;5.38;100.00
42633;BME280;28261;53.304;-6.284;2024-03-08T01:22:40;100827.81;;;5.38;100.00
42633;BME280;28261;53.304;-6.284;2024-03-08T01:24:46;100824.28;;;5.39;100.00
42633;BME280;28261;53.304;-6.284;2024-03-08T01:26:49;100820.72;;;5.40;100.00
42633;BME280;28261;53.304;-6.284;2024-03-08T01:28:53;100817.19;;;5.41;100.00
42633;BME280;28261;53.304;-6.284;2024-03-08T01:30:57;100822.44;;;5.41;100.00
42633;BME280;28261;53.304;-6.284;2024-03-08T01:33:01;100823.28;;;5.42;100.00
42633;BME280;28261;53.304;-6.284;2024-03-08T01:35:06;100820.66;;;5.42;100.00
42633;BME280;28261;53.304;-6.284;2024-03-08T01:37:11;100808.31;;;5.44;100.00
42633;BME280;28261;53.304;-6.284;2024-03-08T01:39:16;100816.13;;;5.46;100.00
42633;BME280;28261;53.304;-6.284;2024-03-08T01:41:22;100819.59;;;5.46;100.00
42633;BME280;28261;53.304;-6.284;2024-03-08T01:43:27;100816.06;;;5.47;100.00
42633;BME280;28261;53.304;-6.284;2024-03-08T01:45:31;100816.91;;;5.48;100.00
42633;BME280;28261;53.304;-6.284;2024-03-08T01:47:37;100813.34;;;5.49;100.00
42633;BME280;28261;53.304;-6.284;2024-03-08T01:49:42;100812.38;;;5.51;100.00
42633;BME280;28261;53.304;-6.284;2024-03-08T01:51:45;100816.75;;;5.51;100.00
42633;BME280;28261;53.304;-6.284;2024-03-08T01:53:49;100799.16;;;5.53;100.00
42633;BME280;28261;53.304;-6.284;2024-03-08T01:55:56;100804.34;;;5.54;100.00
42633;BME280;28261;53.304;-6.284;2024-03-08T01:58:03;100805.19;;;5.55;100.00
42633;BME280;28261;53.304;-6.284;2024-03-08T02:00:08;100804.25;;;5.56;100.00
42633;BME280;28261;53.304;-6.284;2024-03-08T02:02:15;100795.47;;;5.57;100.00
42633;BME280;28261;53.304;-6.284;2024-03-08T02:04:22;100793.75;;;5.56;100.00
42633;BME280;28261;53.304;-6.284;2024-03-08T02:06:26;100796.31;;;5.57;100.00
42633;BME280;28261;53.304;-6.284;2024-03-08T02:08:29;100791.13;;;5.56;100.00
42633;BME280;28261;53.304;-6.284;2024-03-08T02:10:33;100787.66;;;5.55;100.00
42633;BME280;28261;53.304;-6.284;2024-03-08T02:12:37;100777.97;;;5.56;100.00
42633;BME280;28261;53.304;-6.284;2024-03-08T02:14:42;100776.25;;;5.55;100.00
42633;BME280;28261;53.304;-6.284;2024-03-08T02:16:46;100781.50;;;5.55;100.00
42633;BME280;28261;53.304;-6.284;2024-03-08T02:18:50;100771.78;;;5.57;100.00
42633;BME280;28261;53.304;-6.284;2024-03-08T02:20:55;100771.00;;;5.55;100.00
42633;BME280;28261;53.304;-6.284;2024-03-08T02:22:59;100769.31;;;5.54;100.00
42633;BME280;28261;53.304;-6.284;2024-03-08T02:25:04;100763.91;;;5.57;100.00
42633;BME280;28261;53.304;-6.284;2024-03-08T02:27:09;100756.09;;;5.55;100.00
42633;BME280;28261;53.304;-6.284;2024-03-08T02:29:15;100762.19;;;5.56;100.00
42633;BME280;28261;53.304;-6.284;2024-03-08T02:31:18;100756.09;;;5.55;100.00
42633;BME280;28261;53.304;-6.284;2024-03-08T02:33:23;100747.22;;;5.58;100.00
42633;BME280;28261;53.304;-6.284;2024-03-08T02:35:27;100743.72;;;5.57;100.00
42633;BME280;28261;53.304;-6.284;2024-03-08T02:37:33;100741.94;;;5.58;100.00
42633;BME280;28261;53.304;-6.284;2024-03-08T02:39:37;100741.00;;;5.59;100.00
42633;BME280;28261;53.304;-6.284;2024-03-08T02:41:41;100737.47;;;5.60;100.00
42633;BME280;28261;53.304;-6.284;2024-03-08T02:43:45;100727.75;;;5.62;100.00
42633;BME280;28261;53.304;-6.284;2024-03-08T02:45:50;100727.75;;;5.62;100.00
42633;BME280;28261;53.304;-6.284;2024-03-08T02:47:56;100725.09;;;5.62;100.00
42633;BME280;28261;53.304;-6.284;2024-03-08T02:50:00;100714.59;;;5.62;100.00
42633;BME280;28261;53.304;-6.284;2024-03-08T02:52:04;100723.31;;;5.63;100.00
42633;BME280;28261;53.304;-6.284;2024-03-08T02:54:11;100708.41;;;5.63;100.00
42633;BME280;28261;53.304;-6.284;2024-03-08T02:56:15;100706.63;;;5.64;100.00
42633;BME280;28261;53.304;-6.284;2024-03-08T02:58:19;100704.84;;;5.64;100.00
42633;BME280;28261;53.304;-6.284;2024-03-08T03:00:23;100697.88;;;5.63;100.00
42633;BME280;28261;53.304;-6.284;2024-03-08T03:02:27;100690.00;;;5.63;100.00
42633;BME280;28261;53.304;-6.284;2024-03-08T03:04:31;100690.00;;;5.63;100.00
42633;BME280;28261;53.304;-6.284;2024-03-08T03:06:36;100683.03;;;5.62;100.00
42633;BME280;28261;53.304;-6.284;2024-03-08T03:08:41;100681.25;;;5.63;100.00
42633;BME280;28261;53.304;-6.284;2024-03-08T03:10:48;100674.25;;;5.62;100.00
42633;BME280;28261;53.304;-6.284;2024-03-08T03:12:52;100671.63;;;5.62;100.00
42633;BME280;28261;53.304;-6.284;2024-03-08T03:14:56;100669.88;;;5.62;100.00
42633;BME280;28261;53.304;-6.284;2024-03-08T03:17:00;100667.38;;;5.59;100.00
42633;BME280;28261;53.304;-6.284;2024-03-08T03:19:04;100662.13;;;5.59;100.00
42633;BME280;28261;53.304;-6.284;2024-03-08T03:21:09;100654.22;;;5.59;100.00
42633;BME280;28261;53.304;-6.284;2024-03-08T03:23:15;100649.03;;;5.57;100.00
42633;BME280;28261;53.304;-6.284;2024-03-08T03:25:23;100651.59;;;5.59;100.00
42633;BME280;28261;53.304;-6.284;2024-03-08T03:27:29;100644.66;;;5.58;100.00
42633;BME280;28261;53.304;-6.284;2024-03-08T03:29:32;100647.34;;;5.56;100.00
42633;BME280;28261;53.304;-6.284;2024-03-08T03:31:37;100647.34;;;5.56;100.00
42633;BME280;28261;53.304;-6.284;2024-03-08T03:33:42;100642.94;;;5.57;100.00
42633;BME280;28261;53.304;-6.284;2024-03-08T03:35:46;100640.38;;;5.55;100.00
42633;BME280;28261;53.304;-6.284;2024-03-08T03:37:49;100637.84;;;5.54;100.00
42633;BME280;28261;53.304;-6.284;2024-03-08T03:40:04;100635.13;;;5.55;100.00
42633;BME280;28261;53.304;-6.284;2024-03-08T03:42:08;100631.63;;;5.55;100.00
42633;BME280;28261;53.304;-6.284;2024-03-08T03:44:14;100634.25;;;5.55;100.00
42633;BME280;28261;53.304;-6.284;2024-03-08T03:46:18;100630.88;;;5.53;100.00
42633;BME280;28261;53.304;-6.284;2024-03-08T03:48:22;100622.97;;;5.53;100.00
42633;BME280;28261;53.304;-6.284;2024-03-08T03:50:26;100621.25;;;5.52;100.00
42633;BME280;28261;53.304;-6.284;2024-03-08T03:52:29;100623.91;;;5.52;100.00
42633;BME280;28261;53.304;-6.284;2024-03-08T03:54:33;100617.78;;;5.51;100.00
42633;BME280;28261;53.304;-6.284;2024-03-08T03:56:37;100611.66;;;5.51;100.00
42633;BME280;28261;53.304;-6.284;2024-03-08T03:58:42;100615.25;;;5.50;100.00
42633;BME280;28261;53.304;-6.284;2024-03-08T04:00:47;100618.78;;;5.49;100.00
42633;BME280;28261;53.304;-6.284;2024-03-08T04:02:51;100614.44;;;5.48;100.00
42633;BME280;28261;53.304;-6.284;2024-03-08T04:04:54;100615.38;;;5.47;100.00
42633;BME280;28261;53.304;-6.284;2024-03-08T04:06:58;100608.44;;;5.46;100.00
42633;BME280;28261;53.304;-6.284;2024-03-08T04:09:02;100605.00;;;5.43;100.00
42633;BME280;28261;53.304;-6.284;2024-03-08T04:11:07;100597.03;;;5.45;100.00
42633;BME280;28261;53.304;-6.284;2024-03-08T04:13:10;100599.75;;;5.43;100.00
42633;BME280;28261;53.304;-6.284;2024-03-08T04:15:14;100594.50;;;5.43;100.00
42633;BME280;28261;53.304;-6.284;2024-03-08T04:17:20;100587.50;;;5.42;100.00
42633;BME280;28261;53.304;-6.284;2024-03-08T04:19:23;100591.94;;;5.42;100.00
42633;BME280;28261;53.304;-6.284;2024-03-08T04:21:30;100598.09;;;5.41;100.00
42633;BME280;28261;53.304;-6.284;2024-03-08T04:23:34;100592.94;;;5.39;100.00
42633;BME280;28261;53.304;-6.284;2024-03-08T04:25:38;100581.56;;;5.39;100.00
42633;BME280;28261;53.304;-6.284;2024-03-08T04:27:44;100586.84;;;5.39;100.00
42633;BME280;28261;53.304;-6.284;2024-03-08T04:29:49;100585.97;;;5.38;100.00
42633;BME280;28261;53.304;-6.284;2024-03-08T04:31:54;100593.84;;;5.38;100.00
42633;BME280;28261;53.304;-6.284;2024-03-08T04:33:59;100586.03;;;5.37;100.00
42633;BME280;28261;53.304;-6.284;2024-03-08T04:36:04;100584.19;;;5.39;100.00
42633;BME280;28261;53.304;-6.284;2024-03-08T04:38:08;100573.75;;;5.37;100.00
42633;BME280;28261;53.304;-6.284;2024-03-08T04:40:12;100572.97;;;5.35;100.00
42633;BME280;28261;53.304;-6.284;2024-03-08T04:42:16;100570.50;;;5.32;100.00
42633;BME280;28261;53.304;-6.284;2024-03-08T04:44:21;100558.28;;;5.31;100.00
42633;BME280;28261;53.304;-6.284;2024-03-08T04:46:24;100564.44;;;5.30;100.00
42633;BME280;28261;53.304;-6.284;2024-03-08T04:48:29;100569.00;;;5.27;100.00
42633;BME280;28261;53.304;-6.284;2024-03-08T04:50:35;100563.84;;;5.25;100.00
42633;BME280;28261;53.304;-6.284;2024-03-08T04:52:40;100564.69;;;5.25;100.00
42633;BME280;28261;53.304;-6.284;2024-03-08T04:54:44;100567.38;;;5.24;100.00
42633;BME280;28261;53.304;-6.284;2024-03-08T04:56:48;100559.56;;;5.22;100.00
42633;BME280;28261;53.304;-6.284;2024-03-08T04:58:51;100557.78;;;5.23;100.00
42633;BME280;28261;53.304;-6.284;2024-03-08T05:00:55;100566.66;;;5.20;100.00
42633;BME280;28261;53.304;-6.284;2024-03-08T05:02:59;100559.66;;;5.21;100.00
42633;BME280;28261;53.304;-6.284;2024-03-08T05:05:04;100556.94;;;5.22;100.00
42633;BME280;28261;53.304;-6.284;2024-03-08T05:07:11;100557.88;;;5.21;100.00
42633;BME280;28261;53.304;-6.284;2024-03-08T05:09:14;100553.44;;;5.22;100.00
42633;BME280;28261;53.304;-6.284;2024-03-08T05:11:19;100550.06;;;5.20;100.00
42633;BME280;28261;53.304;-6.284;2024-03-08T05:13:23;100552.69;;;5.20;100.00
42633;BME280;28261;53.304;-6.284;2024-03-08T05:15:29;100551.75;;;5.21;100.00
42633;BME280;28261;53.304;-6.284;2024-03-08T05:17:37;100543.09;;;5.19;100.00
42633;BME280;28261;53.304;-6.284;2024-03-08T05:19:42;100539.53;;;5.20;100.00
42633;BME280;28261;53.304;-6.284;2024-03-08T05:21:47;100542.09;;;5.21;100.00
42633;BME280;28261;53.304;-6.284;2024-03-08T05:23:53;100544.78;;;5.20;100.00
42633;BME280;28261;53.304;-6.284;2024-03-08T05:25:57;100539.63;;;5.18;100.00
42633;BME280;28261;53.304;-6.284;2024-03-08T05:28:01;100537.84;;;5.19;100.00
42633;BME280;28261;53.304;-6.284;2024-03-08T05:30:06;100538.75;;;5.18;100.00
42633;BME280;28261;53.304;-6.284;2024-03-08T05:32:16;100534.38;;;5.18;100.00
42633;BME280;28261;53.304;-6.284;2024-03-08T05:34:20;100537.84;;;5.19;100.00
42633;BME280;28261;53.304;-6.284;2024-03-08T05:36:25;100545.72;;;5.19;100.00
42633;BME280;28261;53.304;-6.284;2024-03-08T05:38:29;100534.38;;;5.18;100.00
42633;BME280;28261;53.304;-6.284;2024-03-08T05:40:34;100532.56;;;5.19;100.00
42633;BME280;28261;53.304;-6.284;2024-03-08T05:42:39;100526.47;;;5.18;100.00
42633;BME280;28261;53.304;-6.284;2024-03-08T05:44:43;100528.25;;;5.18;100.00
42633;BME280;28261;53.304;-6.284;2024-03-08T05:46:47;100526.56;;;5.17;100.00
42633;BME280;28261;53.304;-6.284;2024-03-08T05:48:50;100521.22;;;5.18;100.00
42633;BME280;28261;53.304;-6.284;2024-03-08T05:50:53;100518.53;;;5.20;100.00
42633;BME280;28261;53.304;-6.284;2024-03-08T05:52:59;100515.88;;;5.20;100.00
42633;BME280;28261;53.304;-6.284;2024-03-08T05:55:03;100516.81;;;5.19;100.00
42633;BME280;28261;53.304;-6.284;2024-03-08T05:57:11;100515.09;;;5.18;100.00
42633;BME280;28261;53.304;-6.284;2024-03-08T05:59:16;100516.97;;;5.16;100.00
42633;BME280;28261;53.304;-6.284;2024-03-08T06:01:20;100509.84;;;5.18;100.00
42633;BME280;28261;53.304;-6.284;2024-03-08T06:03:24;100502.13;;;5.15;100.00
42633;BME280;28261;53.304;-6.284;2024-03-08T06:05:28;100499.50;;;5.15;100.00
42633;BME280;28261;53.304;-6.284;2024-03-08T06:07:31;100495.94;;;5.16;100.00
42633;BME280;28261;53.304;-6.284;2024-03-08T06:09:35;100492.41;;;5.17;100.00
42633;BME280;28261;53.304;-6.284;2024-03-08T06:11:39;100490.59;;;5.17;100.00
42633;BME280;28261;53.304;-6.284;2024-03-08T06:13:46;100492.41;;;5.17;100.00
42633;BME280;28261;53.304;-6.284;2024-03-08T06:15:52;100481.00;;;5.16;100.00
42633;BME280;28261;53.304;-6.284;2024-03-08T06:17:56;100476.63;;;5.17;100.00
42633;BME280;28261;53.304;-6.284;2024-03-08T06:20:00;100483.56;;;5.18;100.00
42633;BME280;28261;53.304;-6.284;2024-03-08T06:22:05;100478.31;;;5.18;100.00
42633;BME280;28261;53.304;-6.284;2024-03-08T06:24:09;100477.47;;;5.17;100.00
42633;BME280;28261;53.304;-6.284;2024-03-08T06:26:13;100476.63;;;5.17;100.00
42633;BME280;28261;53.304;-6.284;2024-03-08T06:28:17;100478.38;;;5.16;100.00
42633;BME280;28261;53.304;-6.284;2024-03-08T06:30:22;100465.31;;;5.15;100.00
42633;BME280;28261;53.304;-6.284;2024-03-08T06:32:26;100460.91;;;5.15;100.00
42633;BME280;28261;53.304;-6.284;2024-03-08T06:34:32;100460.00;;;5.16;100.00
42633;BME280;28261;53.304;-6.284;2024-03-08T06:36:37;100460.00;;;5.16;100.00
42633;BME280;28261;53.304;-6.284;2024-03-08T06:38:41;100460.88;;;5.17;100.00
42633;BME280;28261;53.304;-6.284;2024-03-08T06:40:48;100461.78;;;5.16;100.00
42633;BME280;28261;53.304;-6.284;2024-03-08T06:42:53;100454.75;;;5.16;100.00
42633;BME280;28261;53.304;-6.284;2024-03-08T06:44:57;100454.75;;;5.16;100.00
42633;BME280;28261;53.304;-6.284;2024-03-08T06:47:08;100457.28;;;5.18;100.00
42633;BME280;28261;53.304;-6.284;2024-03-08T06:49:12;100464.31;;;5.17;100.00
42633;BME280;28261;53.304;-6.284;2024-03-08T06:51:19;100456.53;;;5.16;100.00
42633;BME280;28261;53.304;-6.284;2024-03-08T06:53:23;100454.75;;;5.16;100.00
42633;BME280;28261;53.304;-6.284;2024-03-08T06:55:29;100459.16;;;5.16;100.00
42633;BME280;28261;53.304;-6.284;2024-03-08T06:57:33;100460.06;;;5.15;100.00
42633;BME280;28261;53.304;-6.284;2024-03-08T06:59:37;100459.31;;;5.13;100.00
42633;BME280;28261;53.304;-6.284;2024-03-08T07:01:41;100458.38;;;5.14;100.00
42633;BME280;28261;53.304;-6.284;2024-03-08T07:03:47;100453.09;;;5.14;100.00
42633;BME280;28261;53.304;-6.284;2024-03-08T07:05:50;100450.47;;;5.14;100.00
42633;BME280;28261;53.304;-6.284;2024-03-08T07:07:55;100458.38;;;5.14;100.00
42633;BME280;28261;53.304;-6.284;2024-03-08T07:09:59;100451.28;;;5.16;100.00
42633;BME280;28261;53.304;-6.284;2024-03-08T07:12:02;100450.19;;;5.20;100.00
42633;BME280;28261;53.304;-6.284;2024-03-08T07:14:06;100456.28;;;5.20;100.00
42633;BME280;28261;53.304;-6.284;2024-03-08T07:16:11;100451.91;;;5.21;100.00
42633;BME280;28261;53.304;-6.284;2024-03-08T07:18:15;100456.22;;;5.22;100.00
42633;BME280;28261;53.304;-6.284;2024-03-08T07:20:21;100450.94;;;5.22;100.00
42633;BME280;28261;53.304;-6.284;2024-03-08T07:22:25;100450.94;;;5.22;100.00
42633;BME280;28261;53.304;-6.284;2024-03-08T07:24:29;100441.22;;;5.24;100.00
42633;BME280;28261;53.304;-6.284;2024-03-08T07:26:42;100444.63;;;5.26;100.00
42633;BME280;28261;53.304;-6.284;2024-03-08T07:28:46;100442.78;;;5.28;100.00
42633;BME280;28261;53.304;-6.284;2024-03-08T07:30:49;100442.63;;;5.31;100.00
42633;BME280;28261;53.304;-6.284;2024-03-08T07:33:05;100442.31;;;5.37;100.00
42633;BME280;28261;53.304;-6.284;2024-03-08T07:35:09;100439.63;;;5.39;100.00
42633;BME280;28261;53.304;-6.284;2024-03-08T07:37:14;100446.78;;;5.35;100.00
42633;BME280;28261;53.304;-6.284;2024-03-08T07:39:18;100448.44;;;5.38;100.00
42633;BME280;28261;53.304;-6.284;2024-03-08T07:41:23;100444.16;;;5.35;100.00
42633;BME280;28261;53.304;-6.284;2024-03-08T07:43:27;100449.44;;;5.35;100.00
42633;BME280;28261;53.304;-6.284;2024-03-08T07:45:31;100450.34;;;5.34;100.00
42633;BME280;28261;53.304;-6.284;2024-03-08T07:47:34;100445.97;;;5.35;100.00
42633;BME280;28261;53.304;-6.284;2024-03-08T07:49:39;100445.09;;;5.34;100.00
42633;BME280;28261;53.304;-6.284;2024-03-08T07:51:42;100437.38;;;5.31;100.00
42633;BME280;28261;53.304;-6.284;2024-03-08T07:53:48;100437.44;;;5.30;100.00
42633;BME280;28261;53.304;-6.284;2024-03-08T07:55:52;100431.34;;;5.29;100.00
42633;BME280;28261;53.304;-6.284;2024-03-08T07:57:56;100428.72;;;5.29;100.00
42633;BME280;28261;53.304;-6.284;2024-03-08T08:00:00;100429.56;;;5.30;100.00
42633;BME280;28261;53.304;-6.284;2024-03-08T08:02:09;100431.34;;;5.29;100.00
42633;BME280;28261;53.304;-6.284;2024-03-08T08:04:13;100426.00;;;5.31;100.00
42633;BME280;28261;53.304;-6.284;2024-03-08T08:06:20;100423.38;;;5.31;100.00
42633;BME280;28261;53.304;-6.284;2024-03-08T08:08:24;100419.88;;;5.30;100.00
42633;BME280;28261;53.304;-6.284;2024-03-08T08:10:30;100423.31;;;5.32;100.00
42633;BME280;28261;53.304;-6.284;2024-03-08T08:12:34;100414.50;;;5.33;100.00
42633;BME280;28261;53.304;-6.284;2024-03-08T08:14:37;100415.16;;;5.37;100.00
42633;BME280;28261;53.304;-6.284;2024-03-08T08:16:41;100418.50;;;5.40;100.00
42633;BME280;28261;53.304;-6.284;2024-03-08T08:18:47;100404.38;;;5.43;100.00
42633;BME280;28261;53.304;-6.284;2024-03-08T08:20:52;100409.53;;;5.45;100.00
42633;BME280;28261;53.304;-6.284;2024-03-08T08:22:56;100404.91;;;5.50;100.00
42633;BME280;28261;53.304;-6.284;2024-03-08T08:24:59;100406.59;;;5.51;100.00
42633;BME280;28261;53.304;-6.284;2024-03-08T08:27:05;100406.44;;;5.54;100.00
42633;BME280;28261;53.304;-6.284;2024-03-08T08:29:09;100402.72;;;5.58;100.00
42633;BME280;28261;53.304;-6.284;2024-03-08T08:31:13;100397.31;;;5.61;100.00
42633;BME280;28261;53.304;-6.284;2024-03-08T08:33:17;100389.13;;;5.67;100.00
42633;BME280;28261;53.304;-6.284;2024-03-08T08:35:21;100389.94;;;5.68;100.00
42633;BME280;28261;53.304;-6.284;2024-03-08T08:37:26;100387.31;;;5.68;100.00
42633;BME280;28261;53.304;-6.284;2024-03-08T08:39:31;100395.47;;;5.63;100.00
42633;BME280;28261;53.304;-6.284;2024-03-08T08:41:35;100391.13;;;5.62;100.00
42633;BME280;28261;53.304;-6.284;2024-03-08T08:43:39;100385.88;;;5.62;100.00
42633;BME280;28261;53.304;-6.284;2024-03-08T08:46:00;100381.44;;;5.63;100.00
42633;BME280;28261;53.304;-6.284;2024-03-08T08:48:04;100377.88;;;5.64;100.00
42633;BME280;28261;53.304;-6.284;2024-03-08T08:50:09;100382.91;;;5.68;100.00
42633;BME280;28261;53.304;-6.284;2024-03-08T08:52:14;100375.88;;;5.69;100.00
42633;BME280;28261;53.304;-6.284;2024-03-08T08:54:19;100381.06;;;5.70;100.00
42633;BME280;28261;53.304;-6.284;2024-03-08T08:56:24;100370.63;;;5.69;100.00
42633;BME280;28261;53.304;-6.284;2024-03-08T08:58:28;100370.53;;;5.70;100.00
42633;BME280;28261;53.304;-6.284;2024-03-08T09:00:33;100366.81;;;5.74;100.00
42633;BME280;28261;53.304;-6.284;2024-03-08T09:02:37;100364.63;;;5.83;100.00
42633;BME280;28261;53.304;-6.284;2024-03-08T09:04:40;100354.94;;;5.83;100.00
42633;BME280;28261;53.304;-6.284;2024-03-08T09:06:44;100364.63;;;5.83;100.00
42633;BME280;28261;53.304;-6.284;2024-03-08T09:08:49;100360.91;;;5.87;100.00
42633;BME280;28261;53.304;-6.284;2024-03-08T09:10:59;100363.63;;;5.85;100.00
42633;BME280;28261;53.304;-6.284;2024-03-08T09:13:03;100353.00;;;5.87;100.00
42633;BME280;28261;53.304;-6.284;2024-03-08T09:15:10;100352.09;;;5.88;100.00
42633;BME280;28261;53.304;-6.284;2024-03-08T09:17:16;100352.09;;;5.88;100.00
42633;BME280;28261;53.304;-6.284;2024-03-08T09:19:23;100347.34;;;5.95;100.00
42633;BME280;28261;53.304;-6.284;2024-03-08T09:21:27;100347.34;;;5.95;100.00
42633;BME280;28261;53.304;-6.284;2024-03-08T09:23:32;100342.84;;;5.97;100.00
42633;BME280;28261;53.304;-6.284;2024-03-08T09:25:36;100351.56;;;5.97;100.00
42633;BME280;28261;53.304;-6.284;2024-03-08T09:27:39;100352.13;;;6.04;100.00
42633;BME280;28261;53.304;-6.284;2024-03-08T09:29:44;100338.56;;;6.12;100.00
42633;BME280;28261;53.304;-6.284;2024-03-08T09:31:47;100341.88;;;6.31;100.00
42633;BME280;28261;53.304;-6.284;2024-03-08T09:33:53;100337.88;;;6.40;100.00
42633;BME280;28261;53.304;-6.284;2024-03-08T09:35:57;100336.50;;;6.49;100.00
42633;BME280;28261;53.304;-6.284;2024-03-08T09:38:06;100332.03;;;6.51;100.00
42633;BME280;28261;53.304;-6.284;2024-03-08T09:40:20;100328.09;;;6.58;100.00
42633;BME280;28261;53.304;-6.284;2024-03-08T09:42:28;100333.47;;;6.56;100.00
42633;BME280;28261;53.304;-6.284;2024-03-08T09:44:32;100326.31;;;6.58;100.00
42633;BME280;28261;53.304;-6.284;2024-03-08T09:46:37;100318.06;;;6.49;100.00
42633;BME280;28261;53.304;-6.284;2024-03-08T09:48:42;100317.25;;;6.48;100.00
42633;BME280;28261;53.304;-6.284;2024-03-08T09:50:48;100316.13;;;6.52;100.00
42633;BME280;28261;53.304;-6.284;2024-03-08T09:52:53;100319.09;;;6.46;100.00
42633;BME280;28261;53.304;-6.284;2024-03-08T09:55:01;100314.28;;;6.38;100.00
42633;BME280;28261;53.304;-6.284;2024-03-08T09:57:06;100302.97;;;6.36;100.00
42633;BME280;28261;53.304;-6.284;2024-03-08T09:59:17;100311.22;;;6.30;100.00
42633;BME280;28261;53.304;-6.284;2024-03-08T10:01:45;100303.84;;;6.21;100.00
42633;BME280;28261;53.304;-6.284;2024-03-08T10:03:49;100303.06;;;6.19;100.00
42633;BME280;28261;53.304;-6.284;2024-03-08T10:05:56;100295.34;;;6.16;100.00
42633;BME280;28261;53.304;-6.284;2024-03-08T10:08:03;100293.72;;;6.13;100.00
42633;BME280;28261;53.304;-6.284;2024-03-08T10:10:09;100294.75;;;6.10;100.00
42633;BME280;28261;53.304;-6.284;2024-03-08T10:12:15;100294.00;;;6.08;100.00
42633;BME280;28261;53.304;-6.284;2024-03-08T10:14:19;100288.03;;;6.05;100.00
42633;BME280;28261;53.304;-6.284;2024-03-08T10:16:23;100282.03;;;6.03;100.00
42633;BME280;28261;53.304;-6.284;2024-03-08T10:18:29;100285.78;;;5.97;100.00
42633;BME280;28261;53.304;-6.284;2024-03-08T10:20:33;100286.44;;;6.02;100.00
42633;BME280;28261;53.304;-6.284;2024-03-08T10:22:39;100280.06;;;6.06;100.00
42633;BME280;28261;53.304;-6.284;2024-03-08T10:24:45;100280.47;;;6.15;100.00
42633;BME280;28261;53.304;-6.284;2024-03-08T10:26:51;100270.03;;;6.13;100.00
42633;BME280;28261;53.304;-6.284;2024-03-08T10:28:55;100277.25;;;6.09;100.00
42633;BME280;28261;53.304;-6.284;2024-03-08T10:31:00;100268.78;;;6.04;100.00
42633;BME280;28261;53.304;-6.284;2024-03-08T10:33:05;100261.72;;;6.05;100.00
42633;BME280;28261;53.304;-6.284;2024-03-08T10:35:09;100263.44;;;6.06;100.00
42633;BME280;28261;53.304;-6.284;2024-03-08T10:37:15;100262.41;;;6.08;100.00
42633;BME280;28261;53.304;-6.284;2024-03-08T10:39:33;100256.19;;;6.09;100.00
42633;BME280;28261;53.304;-6.284;2024-03-08T10:41:39;100254.53;;;6.08;100.00
42633;BME280;28261;53.304;-6.284;2024-03-08T10:44:03;100260.63;;;6.09;100.00
42633;BME280;28261;53.304;-6.284;2024-03-08T10:46:21;100257.25;;;6.07;100.00